sensor_id;sensor_type;location;lat;lon;timestamp;temperature;humidity
31379;DHT22;61664;48.112;11.662;2023-02-27T00:00:21;2.80;79.50
31379;DHT22;61664;48.112;11.662;2023-02-27T00:02:49;2.80;79.50
31379;DHT22;61664;48.112;11.662;2023-02-27T00:05:18;2.80;79.50
31379;DHT22;61664;48.112;11.662;2023-02-27T00:07:45;2.80;79.40
31379;DHT22;61664;48.112;11.662;2023-02-27T00:10:13;2.80;79.40
31379;DHT22;61664;48.112;11.662;2023-02-27T00:12:41;2.80;79.30
31379;DHT22;61664;48.112;11.662;2023-02-27T00:15:17;2.70;79.10
31379;DHT22;61664;48.112;11.662;2023-02-27T00:17:45;2.70;77.80
31379;DHT22;61664;48.112;11.662;2023-02-27T00:20:14;2.70;79.20
31379;DHT22;61664;48.112;11.662;2023-02-27T00:22:42;2.70;79.20
31379;DHT22;61664;48.112;11.662;2023-02-27T00:25:11;2.70;79.30
31379;DHT22;61664;48.112;11.662;2023-02-27T00:27:39;2.70;79.30
31379;DHT22;61664;48.112;11.662;2023-02-27T00:30:08;2.70;79.40
31379;DHT22;61664;48.112;11.662;2023-02-27T00:32:37;2.60;79.30
31379;DHT22;61664;48.112;11.662;2023-02-27T00:35:05;2.70;79.50
31379;DHT22;61664;48.112;11.662;2023-02-27T00:37:34;2.70;79.50
31379;DHT22;61664;48.112;11.662;2023-02-27T00:40:01;2.70;79.60
31379;DHT22;61664;48.112;11.662;2023-02-27T00:42:30;2.70;79.70
31379;DHT22;61664;48.112;11.662;2023-02-27T00:44:58;2.70;79.60
31379;DHT22;61664;48.112;11.662;2023-02-27T00:47:24;2.70;79.60
31379;DHT22;61664;48.112;11.662;2023-02-27T00:49:51;2.70;79.60
31379;DHT22;61664;48.112;11.662;2023-02-27T00:52:18;2.70;79.60
31379;DHT22;61664;48.112;11.662;2023-02-27T00:54:45;2.70;79.50
31379;DHT22;61664;48.112;11.662;2023-02-27T00:57:12;2.70;79.50
31379;DHT22;61664;48.112;11.662;2023-02-27T00:59:39;2.70;79.30
31379;DHT22;61664;48.112;11.662;2023-02-27T01:02:07;2.70;79.10
31379;DHT22;61664;48.112;11.662;2023-02-27T01:04:34;2.70;79.20
31379;DHT22;61664;48.112;11.662;2023-02-27T01:07:01;2.70;79.20
31379;DHT22;61664;48.112;11.662;2023-02-27T01:09:29;2.60;79.10
31379;DHT22;61664;48.112;11.662;2023-02-27T01:11:55;2.60;79.00
31379;DHT22;61664;48.112;11.662;2023-02-27T01:14:23;2.60;79.10
31379;DHT22;61664;48.112;11.662;2023-02-27T01:16:50;2.60;79.20
31379;DHT22;61664;48.112;11.662;2023-02-27T01:19:17;2.60;79.10
31379;DHT22;61664;48.112;11.662;2023-02-27T01:21:44;2.60;79.10
31379;DHT22;61664;48.112;11.662;2023-02-27T01:24:11;2.60;78.90
31379;DHT22;61664;48.112;11.662;2023-02-27T01:26:38;2.60;79.00
31379;DHT22;61664;48.112;11.662;2023-02-27T01:29:05;2.60;78.90
31379;DHT22;61664;48.112;11.662;2023-02-27T01:31:33;2.50;78.70
31379;DHT22;61664;48.112;11.662;2023-02-27T01:34:00;2.50;78.60
31379;DHT22;61664;48.112;11.662;2023-02-27T01:36:27;2.50;78.60
31379;DHT22;61664;48.112;11.662;2023-02-27T01:38:54;2.50;78.70
31379;DHT22;61664;48.112;11.662;2023-02-27T01:41:21;2.50;78.70
31379;DHT22;61664;48.112;11.662;2023-02-27T01:44:05;2.40;78.60
31379;DHT22;61664;48.112;11.662;2023-02-27T01:46:35;2.50;76.40
31379;DHT22;61664;48.112;11.662;2023-02-27T01:52:04;2.40;78.50
31379;DHT22;61664;48.112;11.662;2023-02-27T01:54:36;2.40;78.90
31379;DHT22;61664;48.112;11.662;2023-02-27T01:57:06;2.40;78.80
31379;DHT22;61664;48.112;11.662;2023-02-27T01:59:35;2.40;78.90
31379;DHT22;61664;48.112;11.662;2023-02-27T02:02:07;2.40;78.90
31379;DHT22;61664;48.112;11.662;2023-02-27T02:04:40;2.40;78.50
31379;DHT22;61664;48.112;11.662;2023-02-27T02:07:13;2.40;78.70
31379;DHT22;61664;48.112;11.662;2023-02-27T02:09:45;2.30;78.20
31379;DHT22;61664;48.112;11.662;2023-02-27T02:12:17;2.30;78.40
31379;DHT22;61664;48.112;11.662;2023-02-27T02:14:47;2.30;78.50
31379;DHT22;61664;48.112;11.662;2023-02-27T02:17:56;2.30;78.60
31379;DHT22;61664;48.112;11.662;2023-02-27T02:21:08;2.30;75.60
31379;DHT22;61664;48.112;11.662;2023-02-27T02:24:31;2.30;76.60
31379;DHT22;61664;48.112;11.662;2023-02-27T02:27:26;2.30;76.30
31379;DHT22;61664;48.112;11.662;2023-02-27T02:30:38;2.30;77.10
31379;DHT22;61664;48.112;11.662;2023-02-27T02:40:15;2.20;77.80
31379;DHT22;61664;48.112;11.662;2023-02-27T02:42:47;2.20;76.60
31379;DHT22;61664;48.112;11.662;2023-02-27T02:48:35;2.20;76.30
31379;DHT22;61664;48.112;11.662;2023-02-27T02:56:55;2.10;77.60
31379;DHT22;61664;48.112;11.662;2023-02-27T02:59:37;2.10;77.60
31379;DHT22;61664;48.112;11.662;2023-02-27T03:02:13;2.10;78.20
31379;DHT22;61664;48.112;11.662;2023-02-27T03:04:57;2.10;78.50
31379;DHT22;61664;48.112;11.662;2023-02-27T03:07:32;2.10;76.90
31379;DHT22;61664;48.112;11.662;2023-02-27T03:10:20;2.10;78.10
31379;DHT22;61664;48.112;11.662;2023-02-27T03:12:58;2.10;77.70
31379;DHT22;61664;48.112;11.662;2023-02-27T03:15:39;2.10;78.10
31379;DHT22;61664;48.112;11.662;2023-02-27T03:18:21;2.10;77.40
31379;DHT22;61664;48.112;11.662;2023-02-27T03:20:54;2.10;77.80
31379;DHT22;61664;48.112;11.662;2023-02-27T03:23:46;2.10;78.30
31379;DHT22;61664;48.112;11.662;2023-02-27T03:26:17;2.10;76.00
31379;DHT22;61664;48.112;11.662;2023-02-27T03:29:00;2.10;78.60
31379;DHT22;61664;48.112;11.662;2023-02-27T03:34:28;2.10;76.60
31379;DHT22;61664;48.112;11.662;2023-02-27T03:37:12;2.20;78.30
31379;DHT22;61664;48.112;11.662;2023-02-27T03:39:49;2.20;77.90
31379;DHT22;61664;48.112;11.662;2023-02-27T03:45:00;2.20;78.10
31379;DHT22;61664;48.112;11.662;2023-02-27T03:47:28;2.20;78.60
31379;DHT22;61664;48.112;11.662;2023-02-27T03:49:56;2.30;79.00
31379;DHT22;61664;48.112;11.662;2023-02-27T03:52:25;2.20;78.90
31379;DHT22;61664;48.112;11.662;2023-02-27T03:55:11;2.20;78.80
31379;DHT22;61664;48.112;11.662;2023-02-27T03:57:40;2.30;77.10
31379;DHT22;61664;48.112;11.662;2023-02-27T04:00:14;2.30;78.80
31379;DHT22;61664;48.112;11.662;2023-02-27T04:02:45;2.30;78.60
31379;DHT22;61664;48.112;11.662;2023-02-27T04:05:17;2.30;78.70
31379;DHT22;61664;48.112;11.662;2023-02-27T04:19:35;2.30;78.60
31379;DHT22;61664;48.112;11.662;2023-02-27T04:22:29;2.40;76.30
31379;DHT22;61664;48.112;11.662;2023-02-27T04:27:57;2.40;77.70
31379;DHT22;61664;48.112;11.662;2023-02-27T04:30:53;2.40;77.50
31379;DHT22;61664;48.112;11.662;2023-02-27T04:36:12;2.40;77.90
31379;DHT22;61664;48.112;11.662;2023-02-27T04:39:04;2.40;77.40
31379;DHT22;61664;48.112;11.662;2023-02-27T04:41:57;2.40;76.70
31379;DHT22;61664;48.112;11.662;2023-02-27T04:44:29;2.40;78.20
31379;DHT22;61664;48.112;11.662;2023-02-27T04:47:00;2.30;78.60
31379;DHT22;61664;48.112;11.662;2023-02-27T04:49:50;2.40;78.60
31379;DHT22;61664;48.112;11.662;2023-02-27T04:52:40;2.40;76.90
31379;DHT22;61664;48.112;11.662;2023-02-27T04:55:16;2.40;76.50
31379;DHT22;61664;48.112;11.662;2023-02-27T04:57:54;2.40;74.40
31379;DHT22;61664;48.112;11.662;2023-02-27T05:00:30;2.40;78.20
31379;DHT22;61664;48.112;11.662;2023-02-27T05:03:13;2.40;78.30
31379;DHT22;61664;48.112;11.662;2023-02-27T05:05:46;2.40;77.90
31379;DHT22;61664;48.112;11.662;2023-02-27T05:08:38;2.30;78.20
31379;DHT22;61664;48.112;11.662;2023-02-27T05:11:33;2.40;76.50
31379;DHT22;61664;48.112;11.662;2023-02-27T05:17:42;2.30;76.80
31379;DHT22;61664;48.112;11.662;2023-02-27T05:20:12;2.30;74.70
31379;DHT22;61664;48.112;11.662;2023-02-27T05:22:46;2.30;77.80
31379;DHT22;61664;48.112;11.662;2023-02-27T05:25:40;2.30;77.40
31379;DHT22;61664;48.112;11.662;2023-02-27T05:28:20;2.20;75.60
31379;DHT22;61664;48.112;11.662;2023-02-27T05:30:56;2.20;77.10
31379;DHT22;61664;48.112;11.662;2023-02-27T05:33:33;2.20;77.40
31379;DHT22;61664;48.112;11.662;2023-02-27T05:36:23;2.20;77.40
31379;DHT22;61664;48.112;11.662;2023-02-27T05:39:00;2.10;76.30
31379;DHT22;61664;48.112;11.662;2023-02-27T05:41:41;2.20;76.90
31379;DHT22;61664;48.112;11.662;2023-02-27T05:44:28;2.20;76.00
31379;DHT22;61664;48.112;11.662;2023-02-27T05:47:03;2.10;75.50
31379;DHT22;61664;48.112;11.662;2023-02-27T05:49:41;2.10;77.20
31379;DHT22;61664;48.112;11.662;2023-02-27T05:52:16;2.10;76.50
31379;DHT22;61664;48.112;11.662;2023-02-27T05:57:41;2.10;76.50
31379;DHT22;61664;48.112;11.662;2023-02-27T06:00:36;2.00;75.30
31379;DHT22;61664;48.112;11.662;2023-02-27T06:03:06;2.00;75.70
31379;DHT22;61664;48.112;11.662;2023-02-27T06:05:35;2.00;77.80
31379;DHT22;61664;48.112;11.662;2023-02-27T06:08:03;2.00;77.10
31379;DHT22;61664;48.112;11.662;2023-02-27T06:10:30;2.00;77.20
31379;DHT22;61664;48.112;11.662;2023-02-27T06:12:58;2.00;77.30
31379;DHT22;61664;48.112;11.662;2023-02-27T06:15:24;2.00;77.30
31379;DHT22;61664;48.112;11.662;2023-02-27T06:17:52;2.00;77.40
31379;DHT22;61664;48.112;11.662;2023-02-27T06:20:19;2.00;77.40
31379;DHT22;61664;48.112;11.662;2023-02-27T06:22:46;2.00;77.50
31379;DHT22;61664;48.112;11.662;2023-02-27T06:25:13;2.00;77.60
31379;DHT22;61664;48.112;11.662;2023-02-27T06:27:40;2.00;77.70
31379;DHT22;61664;48.112;11.662;2023-02-27T06:30:07;2.00;77.80
31379;DHT22;61664;48.112;11.662;2023-02-27T06:32:35;2.00;77.80
31379;DHT22;61664;48.112;11.662;2023-02-27T06:35:02;2.10;77.80
31379;DHT22;61664;48.112;11.662;2023-02-27T06:37:29;2.10;77.80
31379;DHT22;61664;48.112;11.662;2023-02-27T06:39:55;2.10;77.90
31379;DHT22;61664;48.112;11.662;2023-02-27T06:42:22;2.10;77.90
31379;DHT22;61664;48.112;11.662;2023-02-27T06:44:50;2.10;78.10
31379;DHT22;61664;48.112;11.662;2023-02-27T06:47:17;2.20;78.10
31379;DHT22;61664;48.112;11.662;2023-02-27T06:49:43;2.20;78.10
31379;DHT22;61664;48.112;11.662;2023-02-27T06:52:10;2.20;78.30
31379;DHT22;61664;48.112;11.662;2023-02-27T06:55:14;2.30;78.50
31379;DHT22;61664;48.112;11.662;2023-02-27T06:58:30;2.30;75.30
31379;DHT22;61664;48.112;11.662;2023-02-27T07:00:58;2.40;78.60
31379;DHT22;61664;48.112;11.662;2023-02-27T07:03:26;2.40;78.50
31379;DHT22;61664;48.112;11.662;2023-02-27T07:05:53;2.40;78.60
31379;DHT22;61664;48.112;11.662;2023-02-27T07:08:21;2.50;78.70
31379;DHT22;61664;48.112;11.662;2023-02-27T07:10:48;2.50;78.80
31379;DHT22;61664;48.112;11.662;2023-02-27T07:13:16;2.50;79.00
31379;DHT22;61664;48.112;11.662;2023-02-27T07:15:45;2.60;79.00
31379;DHT22;61664;48.112;11.662;2023-02-27T07:18:12;2.60;79.00
31379;DHT22;61664;48.112;11.662;2023-02-27T07:20:39;2.70;79.10
31379;DHT22;61664;48.112;11.662;2023-02-27T07:23:06;2.70;79.20
31379;DHT22;61664;48.112;11.662;2023-02-27T07:25:33;2.80;79.20
31379;DHT22;61664;48.112;11.662;2023-02-27T07:28:00;2.80;79.10
31379;DHT22;61664;48.112;11.662;2023-02-27T07:30:27;2.80;79.20
31379;DHT22;61664;48.112;11.662;2023-02-27T07:32:56;2.90;79.40
31379;DHT22;61664;48.112;11.662;2023-02-27T07:35:23;2.90;79.30
31379;DHT22;61664;48.112;11.662;2023-02-27T07:37:50;2.90;79.40
31379;DHT22;61664;48.112;11.662;2023-02-27T07:40:17;3.00;79.40
31379;DHT22;61664;48.112;11.662;2023-02-27T07:42:46;3.10;79.40
31379;DHT22;61664;48.112;11.662;2023-02-27T07:45:14;3.10;79.10
31379;DHT22;61664;48.112;11.662;2023-02-27T07:47:44;3.10;79.40
31379;DHT22;61664;48.112;11.662;2023-02-27T07:50:12;3.10;79.40
31379;DHT22;61664;48.112;11.662;2023-02-27T07:52:40;3.20;79.40
31379;DHT22;61664;48.112;11.662;2023-02-27T07:55:10;3.20;79.30
31379;DHT22;61664;48.112;11.662;2023-02-27T07:57:38;3.20;79.10
31379;DHT22;61664;48.112;11.662;2023-02-27T08:00:06;3.30;79.30
31379;DHT22;61664;48.112;11.662;2023-02-27T08:02:35;3.40;79.50
31379;DHT22;61664;48.112;11.662;2023-02-27T08:05:03;3.40;79.50
31379;DHT22;61664;48.112;11.662;2023-02-27T08:07:30;3.40;79.50
31379;DHT22;61664;48.112;11.662;2023-02-27T08:09:57;3.50;79.30
31379;DHT22;61664;48.112;11.662;2023-02-27T08:12:24;3.50;79.10
31379;DHT22;61664;48.112;11.662;2023-02-27T08:14:51;3.60;79.20
31379;DHT22;61664;48.112;11.662;2023-02-27T08:17:18;3.60;79.10
31379;DHT22;61664;48.112;11.662;2023-02-27T08:19:44;3.60;79.10
31379;DHT22;61664;48.112;11.662;2023-02-27T08:22:12;3.60;79.10
31379;DHT22;61664;48.112;11.662;2023-02-27T08:24:39;3.60;79.00
31379;DHT22;61664;48.112;11.662;2023-02-27T08:27:06;3.70;79.00
31379;DHT22;61664;48.112;11.662;2023-02-27T08:29:34;3.70;78.90
31379;DHT22;61664;48.112;11.662;2023-02-27T08:32:01;3.70;79.10
31379;DHT22;61664;48.112;11.662;2023-02-27T08:34:28;3.70;79.10
31379;DHT22;61664;48.112;11.662;2023-02-27T08:36:55;3.70;79.10
31379;DHT22;61664;48.112;11.662;2023-02-27T08:39:22;3.80;79.30
31379;DHT22;61664;48.112;11.662;2023-02-27T08:41:52;3.80;79.40
31379;DHT22;61664;48.112;11.662;2023-02-27T08:44:19;3.80;79.40
31379;DHT22;61664;48.112;11.662;2023-02-27T08:46:46;3.90;79.60
31379;DHT22;61664;48.112;11.662;2023-02-27T08:49:13;3.90;79.40
31379;DHT22;61664;48.112;11.662;2023-02-27T08:51:40;4.00;79.40
31379;DHT22;61664;48.112;11.662;2023-02-27T08:54:07;4.00;79.30
31379;DHT22;61664;48.112;11.662;2023-02-27T08:56:34;4.10;79.50
31379;DHT22;61664;48.112;11.662;2023-02-27T08:59:01;4.10;79.40
31379;DHT22;61664;48.112;11.662;2023-02-27T09:01:28;4.20;79.10
31379;DHT22;61664;48.112;11.662;2023-02-27T09:04:01;4.20;79.00
31379;DHT22;61664;48.112;11.662;2023-02-27T09:06:29;4.30;78.80
31379;DHT22;61664;48.112;11.662;2023-02-27T09:08:57;4.30;78.90
31379;DHT22;61664;48.112;11.662;2023-02-27T09:11:25;4.30;78.80
31379;DHT22;61664;48.112;11.662;2023-02-27T09:13:54;4.40;78.70
31379;DHT22;61664;48.112;11.662;2023-02-27T09:16:22;4.40;78.30
31379;DHT22;61664;48.112;11.662;2023-02-27T09:18:49;4.40;78.10
31379;DHT22;61664;48.112;11.662;2023-02-27T09:21:16;4.40;78.20
31379;DHT22;61664;48.112;11.662;2023-02-27T09:23:43;4.40;78.20
31379;DHT22;61664;48.112;11.662;2023-02-27T09:26:10;4.40;78.20
31379;DHT22;61664;48.112;11.662;2023-02-27T09:28:37;4.40;78.20
31379;DHT22;61664;48.112;11.662;2023-02-27T09:31:08;4.40;78.40
31379;DHT22;61664;48.112;11.662;2023-02-27T09:33:36;4.40;77.10
31379;DHT22;61664;48.112;11.662;2023-02-27T09:36:05;4.30;77.00
31379;DHT22;61664;48.112;11.662;2023-02-27T09:38:34;4.20;76.80
31379;DHT22;61664;48.112;11.662;2023-02-27T09:41:03;4.20;77.20
31379;DHT22;61664;48.112;11.662;2023-02-27T09:43:47;4.10;78.00
31379;DHT22;61664;48.112;11.662;2023-02-27T09:46:21;4.10;76.00
31379;DHT22;61664;48.112;11.662;2023-02-27T09:48:53;4.10;79.00
31379;DHT22;61664;48.112;11.662;2023-02-27T09:51:22;4.10;80.00
31379;DHT22;61664;48.112;11.662;2023-02-27T09:53:54;4.20;80.70
31379;DHT22;61664;48.112;11.662;2023-02-27T09:56:29;4.30;80.60
31379;DHT22;61664;48.112;11.662;2023-02-27T10:04:36;4.60;80.20
31379;DHT22;61664;48.112;11.662;2023-02-27T10:07:21;4.70;75.60
31379;DHT22;61664;48.112;11.662;2023-02-27T10:16:19;5.00;78.10
31379;DHT22;61664;48.112;11.662;2023-02-27T10:19:00;5.10;80.10
31379;DHT22;61664;48.112;11.662;2023-02-27T10:21:41;5.20;76.00
31379;DHT22;61664;48.112;11.662;2023-02-27T10:24:39;5.20;76.40
31379;DHT22;61664;48.112;11.662;2023-02-27T10:27:19;5.30;75.90
31379;DHT22;61664;48.112;11.662;2023-02-27T10:29:47;5.40;78.20
31379;DHT22;61664;48.112;11.662;2023-02-27T10:32:24;5.40;79.30
31379;DHT22;61664;48.112;11.662;2023-02-27T10:34:59;5.50;78.40
31379;DHT22;61664;48.112;11.662;2023-02-27T10:37:36;5.60;78.10
31379;DHT22;61664;48.112;11.662;2023-02-27T10:40:13;5.70;79.50
31379;DHT22;61664;48.112;11.662;2023-02-27T10:42:41;5.80;77.10
31379;DHT22;61664;48.112;11.662;2023-02-27T10:45:15;5.90;79.30
31379;DHT22;61664;48.112;11.662;2023-02-27T10:47:43;5.90;76.80
31379;DHT22;61664;48.112;11.662;2023-02-27T10:50:25;6.00;78.50
31379;DHT22;61664;48.112;11.662;2023-02-27T10:52:57;6.00;74.60
31379;DHT22;61664;48.112;11.662;2023-02-27T10:55:27;6.10;77.10
31379;DHT22;61664;48.112;11.662;2023-02-27T10:58:00;6.10;77.80
31379;DHT22;61664;48.112;11.662;2023-02-27T11:00:44;6.10;77.60
31379;DHT22;61664;48.112;11.662;2023-02-27T11:03:24;6.10;73.10
31379;DHT22;61664;48.112;11.662;2023-02-27T11:06:25;6.10;77.20
31379;DHT22;61664;48.112;11.662;2023-02-27T11:11:38;6.20;72.00
31379;DHT22;61664;48.112;11.662;2023-02-27T11:16:59;6.10;72.20
31379;DHT22;61664;48.112;11.662;2023-02-27T11:19:32;6.00;77.20
31379;DHT22;61664;48.112;11.662;2023-02-27T11:22:04;5.90;76.20
31379;DHT22;61664;48.112;11.662;2023-02-27T11:24:46;5.90;76.50
31379;DHT22;61664;48.112;11.662;2023-02-27T11:27:26;5.80;76.40
31379;DHT22;61664;48.112;11.662;2023-02-27T11:29:55;5.70;72.30
31379;DHT22;61664;48.112;11.662;2023-02-27T11:32:35;5.60;76.80
31379;DHT22;61664;48.112;11.662;2023-02-27T11:35:31;5.60;71.00
31379;DHT22;61664;48.112;11.662;2023-02-27T11:38:03;5.50;73.40
31379;DHT22;61664;48.112;11.662;2023-02-27T11:40:38;5.40;77.10
31379;DHT22;61664;48.112;11.662;2023-02-27T11:43:16;5.30;77.40
31379;DHT22;61664;48.112;11.662;2023-02-27T11:46:06;5.30;78.40
31379;DHT22;61664;48.112;11.662;2023-02-27T11:49:15;5.20;71.70
31379;DHT22;61664;48.112;11.662;2023-02-27T11:52:07;5.20;74.20
31379;DHT22;61664;48.112;11.662;2023-02-27T11:54:42;5.20;75.10
31379;DHT22;61664;48.112;11.662;2023-02-27T12:00:04;5.20;76.30
31379;DHT22;61664;48.112;11.662;2023-02-27T12:03:15;5.20;79.10
31379;DHT22;61664;48.112;11.662;2023-02-27T12:05:57;5.30;74.30
31379;DHT22;61664;48.112;11.662;2023-02-27T12:08:35;5.40;79.80
31379;DHT22;61664;48.112;11.662;2023-02-27T12:11:28;5.30;78.70
31379;DHT22;61664;48.112;11.662;2023-02-27T12:14:08;5.30;75.10
31379;DHT22;61664;48.112;11.662;2023-02-27T12:17:01;5.40;78.70
31379;DHT22;61664;48.112;11.662;2023-02-27T12:20:06;5.40;75.40
31379;DHT22;61664;48.112;11.662;2023-02-27T12:22:48;5.40;72.90
31379;DHT22;61664;48.112;11.662;2023-02-27T12:25:27;5.40;78.70
31379;DHT22;61664;48.112;11.662;2023-02-27T12:28:20;5.30;76.40
31379;DHT22;61664;48.112;11.662;2023-02-27T12:37:25;5.30;79.80
31379;DHT22;61664;48.112;11.662;2023-02-27T12:39:55;5.30;77.50
31379;DHT22;61664;48.112;11.662;2023-02-27T12:42:31;5.30;79.20
31379;DHT22;61664;48.112;11.662;2023-02-27T12:46:15;5.30;79.80
31379;DHT22;61664;48.112;11.662;2023-02-27T12:54:22;5.30;74.50
31379;DHT22;61664;48.112;11.662;2023-02-27T12:57:00;5.30;73.50
31379;DHT22;61664;48.112;11.662;2023-02-27T13:02:39;5.40;78.80
31379;DHT22;61664;48.112;11.662;2023-02-27T13:10:58;5.40;75.70
31379;DHT22;61664;48.112;11.662;2023-02-27T13:13:43;5.40;75.80
31379;DHT22;61664;48.112;11.662;2023-02-27T13:16:49;5.40;75.30
31379;DHT22;61664;48.112;11.662;2023-02-27T13:19:51;5.40;77.90
31379;DHT22;61664;48.112;11.662;2023-02-27T13:22:46;5.40;77.70
31379;DHT22;61664;48.112;11.662;2023-02-27T13:25:28;5.40;75.60
31379;DHT22;61664;48.112;11.662;2023-02-27T13:28:07;5.30;79.10
31379;DHT22;61664;48.112;11.662;2023-02-27T13:30:48;5.40;77.60
31379;DHT22;61664;48.112;11.662;2023-02-27T13:36:39;5.40;76.40
31379;DHT22;61664;48.112;11.662;2023-02-27T13:39:38;5.40;75.90
31379;DHT22;61664;48.112;11.662;2023-02-27T13:45:01;5.40;76.00
31379;DHT22;61664;48.112;11.662;2023-02-27T13:50:01;5.40;78.90
31379;DHT22;61664;48.112;11.662;2023-02-27T13:52:35;5.30;77.70
31379;DHT22;61664;48.112;11.662;2023-02-27T13:55:30;5.40;77.90
31379;DHT22;61664;48.112;11.662;2023-02-27T13:58:04;5.40;73.40
31379;DHT22;61664;48.112;11.662;2023-02-27T14:00:33;5.40;79.90
31379;DHT22;61664;48.112;11.662;2023-02-27T14:05:46;5.50;78.80
31379;DHT22;61664;48.112;11.662;2023-02-27T14:08:24;5.50;80.00
31379;DHT22;61664;48.112;11.662;2023-02-27T14:11:18;5.50;78.90
31379;DHT22;61664;48.112;11.662;2023-02-27T14:24:36;5.80;75.60
31379;DHT22;61664;48.112;11.662;2023-02-27T14:27:20;5.80;75.20
31379;DHT22;61664;48.112;11.662;2023-02-27T14:29:53;5.80;78.30
31379;DHT22;61664;48.112;11.662;2023-02-27T14:32:31;5.80;77.70
31379;DHT22;61664;48.112;11.662;2023-02-27T14:35:03;5.80;78.10
31379;DHT22;61664;48.112;11.662;2023-02-27T14:37:31;5.80;77.40
31379;DHT22;61664;48.112;11.662;2023-02-27T14:39:59;5.80;77.50
31379;DHT22;61664;48.112;11.662;2023-02-27T14:45:55;5.60;73.80
31379;DHT22;61664;48.112;11.662;2023-02-27T14:48:30;5.60;78.20
31379;DHT22;61664;48.112;11.662;2023-02-27T14:50:56;5.50;77.90
31379;DHT22;61664;48.112;11.662;2023-02-27T14:53:26;5.50;78.30
31379;DHT22;61664;48.112;11.662;2023-02-27T14:55:55;5.40;78.20
31379;DHT22;61664;48.112;11.662;2023-02-27T14:58:24;5.40;78.50
31379;DHT22;61664;48.112;11.662;2023-02-27T15:01:07;5.50;72.70
31379;DHT22;61664;48.112;11.662;2023-02-27T15:03:49;5.40;75.10
31379;DHT22;61664;48.112;11.662;2023-02-27T15:06:22;5.50;78.90
31379;DHT22;61664;48.112;11.662;2023-02-27T15:08:58;5.60;80.40
31379;DHT22;61664;48.112;11.662;2023-02-27T15:11:25;5.60;80.80
31379;DHT22;61664;48.112;11.662;2023-02-27T15:14:04;5.80;80.10
31379;DHT22;61664;48.112;11.662;2023-02-27T15:16:35;5.70;75.80
31379;DHT22;61664;48.112;11.662;2023-02-27T15:21:49;5.80;79.40
31379;DHT22;61664;48.112;11.662;2023-02-27T15:24:35;5.80;78.70
31379;DHT22;61664;48.112;11.662;2023-02-27T15:27:20;5.80;77.10
31379;DHT22;61664;48.112;11.662;2023-02-27T15:29:58;5.80;77.10
31379;DHT22;61664;48.112;11.662;2023-02-27T15:35:01;5.70;77.70
31379;DHT22;61664;48.112;11.662;2023-02-27T15:37:32;5.60;77.50
31379;DHT22;61664;48.112;11.662;2023-02-27T15:40:00;5.50;77.00
31379;DHT22;61664;48.112;11.662;2023-02-27T15:42:33;5.50;77.00
31379;DHT22;61664;48.112;11.662;2023-02-27T15:45:03;5.40;75.20
31379;DHT22;61664;48.112;11.662;2023-02-27T15:47:33;5.40;76.80
31379;DHT22;61664;48.112;11.662;2023-02-27T15:52:50;5.30;72.80
31379;DHT22;61664;48.112;11.662;2023-02-27T15:55:31;5.20;74.90
31379;DHT22;61664;48.112;11.662;2023-02-27T15:58:00;5.10;73.20
31379;DHT22;61664;48.112;11.662;2023-02-27T16:00:30;5.00;76.70
31379;DHT22;61664;48.112;11.662;2023-02-27T16:02:59;5.00;76.70
31379;DHT22;61664;48.112;11.662;2023-02-27T16:05:32;4.90;77.00
31379;DHT22;61664;48.112;11.662;2023-02-27T16:08:04;4.90;76.10
31379;DHT22;61664;48.112;11.662;2023-02-27T16:10:40;4.80;76.80
31379;DHT22;61664;48.112;11.662;2023-02-27T16:13:19;4.70;74.70
31379;DHT22;61664;48.112;11.662;2023-02-27T16:22:13;4.40;72.70
31379;DHT22;61664;48.112;11.662;2023-02-27T16:24:43;4.40;70.90
31379;DHT22;61664;48.112;11.662;2023-02-27T16:27:28;4.30;76.90
31379;DHT22;61664;48.112;11.662;2023-02-27T16:29:56;4.30;74.50
31379;DHT22;61664;48.112;11.662;2023-02-27T16:32:33;4.30;77.00
31379;DHT22;61664;48.112;11.662;2023-02-27T16:35:18;4.20;76.90
31379;DHT22;61664;48.112;11.662;2023-02-27T16:37:48;4.10;74.10
31379;DHT22;61664;48.112;11.662;2023-02-27T16:40:18;4.10;77.00
31379;DHT22;61664;48.112;11.662;2023-02-27T16:42:51;4.10;77.00
31379;DHT22;61664;48.112;11.662;2023-02-27T16:45:21;4.00;77.10
31379;DHT22;61664;48.112;11.662;2023-02-27T16:47:52;4.00;76.70
31379;DHT22;61664;48.112;11.662;2023-02-27T16:50:36;3.90;76.60
31379;DHT22;61664;48.112;11.662;2023-02-27T16:53:06;3.90;76.10
31379;DHT22;61664;48.112;11.662;2023-02-27T16:55:38;3.80;77.00
31379;DHT22;61664;48.112;11.662;2023-02-27T16:58:07;3.80;76.50
31379;DHT22;61664;48.112;11.662;2023-02-27T17:00:39;3.80;77.50
31379;DHT22;61664;48.112;11.662;2023-02-27T17:03:07;3.80;77.60
31379;DHT22;61664;48.112;11.662;2023-02-27T17:05:34;3.70;77.50
31379;DHT22;61664;48.112;11.662;2023-02-27T17:08:01;3.70;77.40
31379;DHT22;61664;48.112;11.662;2023-02-27T17:10:28;3.70;77.50
31379;DHT22;61664;48.112;11.662;2023-02-27T17:12:55;3.70;77.40
31379;DHT22;61664;48.112;11.662;2023-02-27T17:15:22;3.60;77.20
31379;DHT22;61664;48.112;11.662;2023-02-27T17:17:49;3.60;77.30
31379;DHT22;61664;48.112;11.662;2023-02-27T17:20:16;3.50;77.30
31379;DHT22;61664;48.112;11.662;2023-02-27T17:22:44;3.50;77.40
31379;DHT22;61664;48.112;11.662;2023-02-27T17:25:11;3.60;77.50
31379;DHT22;61664;48.112;11.662;2023-02-27T17:27:41;3.50;77.50
31379;DHT22;61664;48.112;11.662;2023-02-27T17:30:10;3.50;77.30
31379;DHT22;61664;48.112;11.662;2023-02-27T17:32:38;3.50;77.30
31379;DHT22;61664;48.112;11.662;2023-02-27T17:35:05;3.40;77.40
31379;DHT22;61664;48.112;11.662;2023-02-27T17:37:32;3.40;77.40
31379;DHT22;61664;48.112;11.662;2023-02-27T17:40:00;3.40;77.50
31379;DHT22;61664;48.112;11.662;2023-02-27T17:42:31;3.40;77.70
31379;DHT22;61664;48.112;11.662;2023-02-27T17:44:58;3.30;77.60
31379;DHT22;61664;48.112;11.662;2023-02-27T17:47:26;3.30;77.70
31379;DHT22;61664;48.112;11.662;2023-02-27T17:49:53;3.30;77.80
31379;DHT22;61664;48.112;11.662;2023-02-27T17:52:20;3.30;77.90
31379;DHT22;61664;48.112;11.662;2023-02-27T17:54:48;3.30;77.90
31379;DHT22;61664;48.112;11.662;2023-02-27T17:57:15;3.30;77.70
31379;DHT22;61664;48.112;11.662;2023-02-27T17:59:43;3.20;77.60
31379;DHT22;61664;48.112;11.662;2023-02-27T18:02:13;3.20;77.80
31379;DHT22;61664;48.112;11.662;2023-02-27T18:04:40;3.20;77.80
31379;DHT22;61664;48.112;11.662;2023-02-27T18:07:08;3.20;78.00
31379;DHT22;61664;48.112;11.662;2023-02-27T18:09:35;3.20;78.10
31379;DHT22;61664;48.112;11.662;2023-02-27T18:12:02;3.20;78.20
31379;DHT22;61664;48.112;11.662;2023-02-27T18:14:29;3.20;78.40
31379;DHT22;61664;48.112;11.662;2023-02-27T18:16:56;3.20;78.50
31379;DHT22;61664;48.112;11.662;2023-02-27T18:19:23;3.20;78.50
31379;DHT22;61664;48.112;11.662;2023-02-27T18:21:50;3.20;78.50